createdAt,value
2017-11-19T00:01:01.407Z,48.86
2017-11-19T00:03:04.749Z,48.87
2017-11-19T00:05:08.115Z,48.86
2017-11-19T00:07:11.418Z,48.86
2017-11-19T00:09:15.544Z,48.86
2017-11-19T00:11:18.829Z,48.86
2017-11-19T00:13:22.186Z,48.86
2017-11-19T00:15:25.469Z,48.86
2017-11-19T00:17:28.797Z,48.86
2017-11-19T00:19:32.116Z,48.86
2017-11-19T00:21:35.568Z,48.86
2017-11-19T00:23:38.988Z,48.87
2017-11-19T00:25:43.049Z,48.86
2017-11-19T00:27:46.781Z,48.86
2017-11-19T00:29:50.073Z,48.88
2017-11-19T00:31:53.385Z,48.87
2017-11-19T00:33:56.683Z,48.87
2017-11-19T00:36:00.143Z,48.87
2017-11-19T00:38:03.477Z,48.87
2017-11-19T00:40:06.777Z,48.87
2017-11-19T00:42:10.183Z,48.87
2017-11-19T00:44:13.507Z,48.86
2017-11-19T00:46:16.791Z,48.87
2017-11-19T00:48:20.285Z,48.86
2017-11-19T00:50:23.826Z,48.85
2017-11-19T00:52:27.129Z,48.85
2017-11-19T00:54:30.419Z,48.84
2017-11-19T00:56:33.734Z,48.85
2017-11-19T00:58:37.047Z,48.85
2017-11-19T01:00:40.437Z,48.85
2017-11-19T01:02:43.769Z,48.85
2017-11-19T01:04:47.060Z,48.84
2017-11-19T01:06:50.354Z,48.84
2017-11-19T01:08:53.671Z,48.84
2017-11-19T01:10:56.962Z,48.84
2017-11-19T01:13:00.279Z,48.85
2017-11-19T01:15:03.631Z,48.84
2017-11-19T01:17:06.961Z,48.85
2017-11-19T01:19:11.680Z,48.84
2017-11-19T01:21:15.073Z,48.84
2017-11-19T01:23:18.361Z,48.84
2017-11-19T01:25:21.658Z,48.84
2017-11-19T01:27:24.977Z,48.85
2017-11-19T01:29:28.296Z,48.85
2017-11-19T01:31:31.617Z,48.85
2017-11-19T01:33:34.941Z,48.84
2017-11-19T01:35:38.305Z,48.84
2017-11-19T01:37:41.594Z,48.84
2017-11-19T01:39:44.917Z,48.85
2017-11-19T01:41:48.216Z,48.83
2017-11-19T01:43:51.498Z,48.84
2017-11-19T01:45:54.822Z,48.84
2017-11-19T01:47:58.137Z,48.84
2017-11-19T01:50:01.409Z,48.84
2017-11-19T01:52:04.818Z,48.84
2017-11-19T01:54:08.110Z,48.83
2017-11-19T01:56:11.402Z,48.85
2017-11-19T01:58:14.723Z,48.84
2017-11-19T02:00:18.078Z,48.84
2017-11-19T02:02:31.312Z,48.83
2017-11-19T02:04:34.605Z,48.82
2017-11-19T02:06:37.981Z,48.84
2017-11-19T02:08:41.325Z,48.83
2017-11-19T02:10:44.639Z,48.84
2017-11-19T02:12:47.955Z,48.83
2017-11-19T02:14:51.249Z,48.84
2017-11-19T02:16:54.569Z,48.84
2017-11-19T02:18:57.921Z,48.83
2017-11-19T02:21:01.418Z,48.83
2017-11-19T02:23:04.734Z,48.82
2017-11-19T02:25:08.111Z,48.82
2017-11-19T02:27:11.498Z,48.82
2017-11-19T02:29:14.810Z,48.82
2017-11-19T02:31:18.102Z,48.82
2017-11-19T02:33:21.531Z,48.82
2017-11-19T02:35:24.823Z,48.82
2017-11-19T02:37:28.142Z,48.81
2017-11-19T02:39:31.432Z,48.81
2017-11-19T02:41:34.783Z,48.81
2017-11-19T02:43:38.066Z,48.81
2017-11-19T02:45:41.402Z,48.82
2017-11-19T02:47:44.715Z,48.82
2017-11-19T02:49:48.017Z,48.81
2017-11-19T02:51:51.382Z,48.81
2017-11-19T02:53:54.739Z,48.81
2017-11-19T02:55:58.054Z,48.81
2017-11-19T02:58:01.341Z,48.81
2017-11-19T03:00:04.653Z,48.81
2017-11-19T03:02:07.990Z,48.82
2017-11-19T03:04:11.262Z,48.82
2017-11-19T03:06:14.574Z,48.82
2017-11-19T03:08:17.898Z,48.82
2017-11-19T03:10:21.289Z,48.82
2017-11-19T03:12:24.619Z,48.81
2017-11-19T03:14:27.910Z,48.81
2017-11-19T03:16:31.359Z,48.81
2017-11-19T03:18:34.720Z,48.81
2017-11-19T03:20:38.016Z,48.81
2017-11-19T03:22:41.328Z,48.82
2017-11-19T03:24:44.617Z,48.83
2017-11-19T03:26:48.026Z,48.82
2017-11-19T03:28:51.406Z,48.82
2017-11-19T03:30:54.738Z,48.82
2017-11-19T03:32:59.041Z,48.82
2017-11-19T03:35:02.357Z,48.82
2017-11-19T03:37:05.669Z,48.81
2017-11-19T03:39:08.993Z,48.83
2017-11-19T03:41:12.258Z,48.82
2017-11-19T03:43:15.653Z,48.84
2017-11-19T03:45:18.979Z,48.82
2017-11-19T03:47:22.337Z,48.82
2017-11-19T03:49:25.799Z,48.83
2017-11-19T03:51:29.084Z,48.83
2017-11-19T03:53:32.381Z,48.83
2017-11-19T03:55:35.887Z,48.83
2017-11-19T03:57:39.191Z,48.83
2017-11-19T03:59:42.486Z,48.83
2017-11-19T04:01:45.798Z,48.82
2017-11-19T04:03:49.170Z,48.83
2017-11-19T04:05:52.457Z,48.81
2017-11-19T04:07:55.847Z,48.81
2017-11-19T04:09:59.139Z,48.82
2017-11-19T04:12:02.429Z,48.84
2017-11-19T04:14:05.805Z,48.83
2017-11-19T04:16:09.088Z,48.83
2017-11-19T04:18:12.384Z,48.82
2017-11-19T04:20:15.697Z,48.82
2017-11-19T04:22:18.990Z,48.82
2017-11-19T04:24:22.287Z,48.82
2017-11-19T04:26:25.655Z,48.83
2017-11-19T04:28:28.941Z,48.82
2017-11-19T04:30:32.235Z,48.82
2017-11-19T04:32:35.588Z,48.82
2017-11-19T04:34:38.901Z,48.82
2017-11-19T04:36:42.209Z,48.82
2017-11-19T04:38:45.664Z,48.84
2017-11-19T04:40:48.994Z,48.83
2017-11-19T04:42:52.445Z,48.84
2017-11-19T04:44:55.741Z,48.83
2017-11-19T04:46:59.061Z,48.84
2017-11-19T04:49:02.350Z,48.84
2017-11-19T04:51:05.661Z,48.84
2017-11-19T04:53:09.032Z,48.86
2017-11-19T04:55:12.425Z,48.86
2017-11-19T04:57:15.875Z,48.84
2017-11-19T04:59:19.165Z,48.84
2017-11-19T05:01:22.485Z,48.84
2017-11-19T05:03:25.794Z,48.86
2017-11-19T05:05:29.084Z,48.86
2017-11-19T05:07:32.383Z,48.85
2017-11-19T05:09:35.753Z,48.85
2017-11-19T05:11:39.049Z,48.85
2017-11-19T05:13:43.390Z,48.86
2017-11-19T05:15:46.710Z,48.86
2017-11-19T05:17:50.005Z,48.86
2017-11-19T05:19:53.329Z,48.86
2017-11-19T05:21:56.645Z,48.87
2017-11-19T05:23:59.972Z,48.86
2017-11-19T05:26:03.273Z,48.86
2017-11-19T05:28:06.595Z,48.86
2017-11-19T05:30:09.980Z,48.87
2017-11-19T05:32:13.275Z,48.87
2017-11-19T05:34:16.585Z,48.86
2017-11-19T05:36:19.884Z,48.87
2017-11-19T05:38:23.177Z,48.86
2017-11-19T05:40:26.732Z,48.86
2017-11-19T05:42:30.022Z,48.87
2017-11-19T05:44:33.409Z,48.87
2017-11-19T05:46:36.726Z,48.86
2017-11-19T05:48:40.019Z,48.86
2017-11-19T05:50:43.311Z,48.86
2017-11-19T05:52:46.634Z,48.86
2017-11-19T05:54:49.937Z,48.85
2017-11-19T05:56:53.241Z,48.87
2017-11-19T05:58:56.734Z,48.87
2017-11-19T06:01:01.025Z,48.87
2017-11-19T06:03:04.352Z,48.88
2017-11-19T06:05:07.668Z,48.87
2017-11-19T06:07:10.961Z,48.87
2017-11-19T06:09:14.257Z,48.87
2017-11-19T06:11:17.577Z,48.87
2017-11-19T06:13:20.879Z,48.86
2017-11-19T06:15:24.190Z,48.86
2017-11-19T06:17:27.581Z,48.86
2017-11-19T06:19:30.874Z,48.85
2017-11-19T06:21:34.333Z,48.85
2017-11-19T06:23:37.633Z,48.85
2017-11-19T06:25:42.388Z,48.86
2017-11-19T06:27:45.766Z,48.84
2017-11-19T06:29:49.077Z,48.86
2017-11-19T06:31:52.449Z,48.85
2017-11-19T06:33:55.747Z,48.84
2017-11-19T06:35:59.125Z,48.83
2017-11-19T06:38:02.415Z,48.85
2017-11-19T06:40:05.810Z,48.85
2017-11-19T06:42:09.168Z,48.85
2017-11-19T06:44:12.445Z,48.84
2017-11-19T06:46:15.725Z,48.84
2017-11-19T06:48:19.044Z,48.84
2017-11-19T06:50:22.337Z,48.84
2017-11-19T06:52:25.717Z,48.84
2017-11-19T06:54:29.045Z,48.85
2017-11-19T06:56:32.334Z,48.82
2017-11-19T06:58:35.726Z,48.84
2017-11-19T07:00:39.220Z,48.83
2017-11-19T07:02:42.703Z,48.83
2017-11-19T07:04:46.117Z,48.83
2017-11-19T07:06:54.817Z,48.81
2017-11-19T07:08:58.210Z,48.81
2017-11-19T07:11:01.605Z,48.81
2017-11-19T07:13:04.925Z,48.81
2017-11-19T07:15:08.217Z,48.80
2017-11-19T07:17:11.550Z,48.80
2017-11-19T07:19:14.858Z,48.80
2017-11-19T07:21:18.183Z,48.80
2017-11-19T07:23:21.458Z,48.79
2017-11-19T07:25:24.797Z,48.80
2017-11-19T07:27:28.086Z,48.81
2017-11-19T07:29:31.379Z,48.82
2017-11-19T07:31:34.697Z,48.81
2017-11-19T07:33:37.982Z,48.81
2017-11-19T07:35:41.270Z,48.80
2017-11-19T07:37:44.629Z,48.80
2017-11-19T07:39:47.952Z,48.80
2017-11-19T07:41:51.251Z,48.78
2017-11-19T07:43:54.608Z,48.76
2017-11-19T07:45:57.876Z,48.76
2017-11-19T07:48:01.166Z,48.77
2017-11-19T07:50:04.483Z,48.76
2017-11-19T07:52:07.770Z,48.74
2017-11-19T07:54:11.089Z,48.74
2017-11-19T07:56:15.913Z,48.73
2017-11-19T07:58:19.206Z,48.72
2017-11-19T08:00:22.569Z,48.72
2017-11-19T08:02:25.898Z,48.72
2017-11-19T08:04:29.215Z,48.72
2017-11-19T08:06:32.506Z,48.71
2017-11-19T08:08:35.817Z,48.70
2017-11-19T08:10:39.113Z,48.71
2017-11-19T08:12:42.475Z,48.71
2017-11-19T08:14:45.843Z,48.72
2017-11-19T08:16:49.134Z,48.71
2017-11-19T08:18:52.506Z,48.71
2017-11-19T08:20:56.113Z,48.71
2017-11-19T08:22:59.402Z,48.71
2017-11-19T08:25:02.692Z,48.70
2017-11-19T08:27:06.000Z,48.69
2017-11-19T08:29:09.296Z,48.69
2017-11-19T08:31:12.652Z,48.68
2017-11-19T08:33:16.001Z,48.67
2017-11-19T08:35:19.298Z,48.67
2017-11-19T08:37:22.616Z,48.67
2017-11-19T08:39:25.929Z,48.67
2017-11-19T08:41:29.217Z,48.67
2017-11-19T08:43:32.510Z,48.66
2017-11-19T08:45:35.844Z,48.66
2017-11-19T08:47:39.176Z,48.65
2017-11-19T08:49:42.438Z,48.65
2017-11-19T08:51:45.748Z,48.65
2017-11-19T08:53:49.046Z,48.64
2017-11-19T08:55:52.433Z,48.63
2017-11-19T08:57:55.751Z,48.63
2017-11-19T08:59:59.046Z,48.62
2017-11-19T09:02:02.342Z,48.62
2017-11-19T09:04:05.780Z,48.62
2017-11-19T09:06:09.214Z,48.63
2017-11-19T09:08:12.590Z,48.61
2017-11-19T09:10:15.934Z,48.60
2017-11-19T09:12:19.204Z,48.60
2017-11-19T09:14:22.506Z,48.59
2017-11-19T09:16:25.814Z,48.59
2017-11-19T09:18:29.233Z,48.58
2017-11-19T09:20:32.523Z,48.59
2017-11-19T09:22:35.914Z,48.58
2017-11-19T09:24:39.206Z,48.57
2017-11-19T09:26:42.499Z,48.56
2017-11-19T09:28:45.888Z,48.55
2017-11-19T09:30:49.281Z,48.56
2017-11-19T09:32:52.575Z,48.55
2017-11-19T09:34:55.881Z,48.54
2017-11-19T09:36:59.183Z,48.54
2017-11-19T09:39:02.482Z,48.54
2017-11-19T09:41:05.822Z,48.54
2017-11-19T09:43:09.217Z,48.51
2017-11-19T09:45:12.527Z,48.51
2017-11-19T09:47:15.841Z,48.53
2017-11-19T09:49:19.185Z,48.54
2017-11-19T09:51:22.490Z,48.53
2017-11-19T09:53:25.863Z,48.51
2017-11-19T09:55:29.224Z,48.50
2017-11-19T09:57:32.497Z,48.50
2017-11-19T09:59:35.833Z,48.49
2017-11-19T10:01:39.117Z,48.48
2017-11-19T10:03:42.521Z,48.47
2017-11-19T10:05:45.925Z,48.47
2017-11-19T10:07:49.302Z,48.46
2017-11-19T10:09:52.691Z,48.46
2017-11-19T10:11:56.049Z,48.45
2017-11-19T10:13:59.340Z,48.44
2017-11-19T10:16:02.632Z,48.43
2017-11-19T10:18:05.943Z,48.42
2017-11-19T10:20:10.604Z,48.41
2017-11-19T10:22:13.962Z,48.42
2017-11-19T10:24:17.280Z,48.41
2017-11-19T10:26:20.646Z,48.41
2017-11-19T10:28:24.049Z,48.40
2017-11-19T10:30:27.369Z,48.40
2017-11-19T10:32:30.661Z,48.40
2017-11-19T10:34:34.013Z,48.39
2017-11-19T10:36:37.338Z,48.38
2017-11-19T10:38:40.661Z,48.37
2017-11-19T10:40:44.001Z,48.36
2017-11-19T10:42:47.342Z,48.35
2017-11-19T10:44:50.638Z,48.36
2017-11-19T10:46:53.948Z,48.35
2017-11-19T10:48:57.303Z,48.35
2017-11-19T10:51:00.578Z,48.35
2017-11-19T10:53:03.921Z,48.35
2017-11-19T10:55:07.275Z,48.34
2017-11-19T10:57:10.548Z,48.33
2017-11-19T10:59:13.889Z,48.32
2017-11-19T11:01:17.232Z,48.31
2017-11-19T11:03:20.517Z,48.30
2017-11-19T11:05:23.858Z,48.29
2017-11-19T11:07:27.453Z,48.28
2017-11-19T11:09:30.870Z,48.28
2017-11-19T11:11:34.247Z,48.29
2017-11-19T11:13:37.561Z,48.26
2017-11-19T11:15:40.928Z,48.27
2017-11-19T11:17:44.219Z,48.26
2017-11-19T11:19:47.567Z,48.26
2017-11-19T11:21:50.910Z,48.25
2017-11-19T11:23:54.193Z,48.24
2017-11-19T11:25:57.583Z,48.24
2017-11-19T11:28:00.973Z,48.23
2017-11-19T11:30:04.266Z,48.23
2017-11-19T11:32:07.645Z,48.22
2017-11-19T11:34:10.962Z,48.21
2017-11-19T11:36:14.303Z,48.21
2017-11-19T11:38:17.638Z,48.22
2017-11-19T11:40:21.005Z,48.21
2017-11-19T11:42:24.298Z,48.21
2017-11-19T11:44:27.629Z,48.21
2017-11-19T11:46:30.982Z,48.19
2017-11-19T11:48:34.377Z,48.20
2017-11-19T11:50:37.725Z,48.20
2017-11-19T11:52:40.997Z,48.20
2017-11-19T11:54:44.299Z,48.20
2017-11-19T11:56:47.622Z,48.19
2017-11-19T11:58:50.924Z,48.18
2017-11-19T12:00:54.338Z,48.18
2017-11-19T12:02:57.717Z,48.17
2017-11-19T12:05:01.018Z,48.18
2017-11-19T12:07:04.346Z,48.17
2017-11-19T12:09:07.878Z,48.17
2017-11-19T12:11:11.290Z,48.17
2017-11-19T12:13:14.658Z,48.18
2017-11-19T12:15:18.018Z,48.18
2017-11-19T12:17:21.317Z,48.18
2017-11-19T12:19:24.627Z,48.19
2017-11-19T12:21:28.090Z,48.19
2017-11-19T12:23:31.382Z,48.19
2017-11-19T12:25:34.676Z,48.19
2017-11-19T12:27:38.002Z,48.20
2017-11-19T12:29:41.308Z,48.21
2017-11-19T12:31:44.604Z,48.21
2017-11-19T12:33:48.033Z,48.20
2017-11-19T12:35:51.315Z,48.21
2017-11-19T12:37:54.647Z,48.20
2017-11-19T12:39:58.002Z,48.21
2017-11-19T12:42:01.338Z,48.20
2017-11-19T12:44:04.622Z,48.19
2017-11-19T12:46:07.960Z,48.20
2017-11-19T12:48:11.241Z,48.19
2017-11-19T12:50:14.538Z,48.19
2017-11-19T12:52:17.881Z,48.21
2017-11-19T12:54:21.184Z,48.20
2017-11-19T12:56:24.477Z,48.20
2017-11-19T12:58:27.813Z,48.20
2017-11-19T13:00:31.112Z,48.19
2017-11-19T13:02:34.430Z,48.19
2017-11-19T13:04:37.780Z,48.19
2017-11-19T13:06:41.057Z,48.18
2017-11-19T13:08:44.643Z,48.17
2017-11-19T13:10:48.102Z,48.17
2017-11-19T13:12:51.485Z,48.16
2017-11-19T13:14:54.880Z,48.16
2017-11-19T13:16:58.241Z,48.16
2017-11-19T13:19:01.522Z,48.15
2017-11-19T13:21:04.865Z,48.15
2017-11-19T13:23:08.207Z,48.15
2017-11-19T13:25:11.599Z,48.16
2017-11-19T13:27:14.894Z,48.16
2017-11-19T13:29:19.945Z,48.16
2017-11-19T13:31:23.236Z,48.15
2017-11-19T13:33:26.609Z,48.15
2017-11-19T13:35:29.906Z,48.15
2017-11-19T13:37:33.279Z,48.16
2017-11-19T13:39:36.677Z,48.14
2017-11-19T13:41:40.101Z,48.14
2017-11-19T13:43:43.402Z,48.13
2017-11-19T13:45:46.756Z,48.12
2017-11-19T13:47:50.129Z,48.12
2017-11-19T13:49:53.485Z,48.13
2017-11-19T13:51:56.781Z,48.13
2017-11-19T13:54:00.222Z,48.13
2017-11-19T13:56:04.255Z,48.12
2017-11-19T13:58:07.681Z,48.12
2017-11-19T14:00:11.060Z,48.11
2017-11-19T14:02:14.394Z,48.10
2017-11-19T14:04:17.704Z,48.10
2017-11-19T14:06:21.117Z,48.08
2017-11-19T14:10:34.042Z,48.08
2017-11-19T14:12:37.594Z,48.07
2017-11-19T14:14:40.902Z,48.05
2017-11-19T14:16:44.176Z,48.06
2017-11-19T14:18:47.536Z,48.05
2017-11-19T14:20:50.825Z,48.04
2017-11-19T14:22:54.122Z,48.04
2017-11-19T14:24:57.463Z,48.04
2017-11-19T14:27:00.802Z,48.03
2017-11-19T14:29:04.239Z,48.02
2017-11-19T14:31:07.562Z,48.02
2017-11-19T14:33:10.856Z,48.02
2017-11-19T14:35:14.142Z,48.02
2017-11-19T14:37:17.482Z,48.02
2017-11-19T14:39:20.793Z,48.02
2017-11-19T14:41:24.088Z,48.01
2017-11-19T14:43:27.407Z,48.01
2017-11-19T14:45:30.773Z,48.02
2017-11-19T14:47:34.105Z,48.02
2017-11-19T14:49:37.425Z,48.01
2017-11-19T14:51:40.744Z,48.02
2017-11-19T14:53:44.133Z,48.01
2017-11-19T14:55:47.487Z,48.01
2017-11-19T14:57:50.784Z,48.01
2017-11-19T14:59:54.076Z,48.01
2017-11-19T15:01:57.395Z,48.01
2017-11-19T15:04:00.781Z,48.00
2017-11-19T15:06:04.076Z,48.00
2017-11-19T15:08:07.408Z,48.00
2017-11-19T15:10:10.702Z,48.00
2017-11-19T15:12:14.097Z,48.00
2017-11-19T15:14:17.605Z,48.00
2017-11-19T15:16:20.891Z,48.00
2017-11-19T15:18:24.196Z,48.00
2017-11-19T15:20:27.515Z,48.00
2017-11-19T15:22:30.880Z,48.00
2017-11-19T15:24:34.189Z,48.01
2017-11-19T15:26:37.547Z,48.02
2017-11-19T15:28:40.850Z,48.02
2017-11-19T15:30:44.147Z,48.01
2017-11-19T15:32:47.462Z,48.01
2017-11-19T15:34:50.774Z,48.02
2017-11-19T15:36:54.057Z,48.03
2017-11-19T15:38:57.412Z,48.04
2017-11-19T15:41:00.709Z,48.03
2017-11-19T15:43:04.012Z,48.05
2017-11-19T15:45:07.405Z,48.03
2017-11-19T15:47:10.801Z,48.05
2017-11-19T15:49:14.180Z,48.06
2017-11-19T15:51:17.489Z,48.07
2017-11-19T15:53:21.650Z,48.06
2017-11-19T15:55:24.954Z,48.06
2017-11-19T15:57:28.286Z,48.08
2017-11-19T15:59:31.599Z,48.08
2017-11-19T16:01:34.926Z,48.09
2017-11-19T16:03:38.270Z,48.09
2017-11-19T16:05:41.565Z,48.09
2017-11-19T16:07:44.850Z,48.07
2017-11-19T16:09:48.262Z,48.08
2017-11-19T16:11:51.541Z,48.08
2017-11-19T16:13:54.878Z,48.08
2017-11-19T16:15:58.269Z,48.08
2017-11-19T16:18:01.634Z,48.08
2017-11-19T16:20:04.970Z,48.10
2017-11-19T16:22:08.307Z,48.09
2017-11-19T16:24:11.620Z,48.10
2017-11-19T16:26:14.917Z,48.11
2017-11-19T16:28:18.233Z,48.11
2017-11-19T16:30:21.605Z,48.11
2017-11-19T16:32:25.002Z,48.11
2017-11-19T16:34:28.402Z,48.11
2017-11-19T16:36:31.793Z,48.13
2017-11-19T16:38:35.101Z,48.13
2017-11-19T16:40:38.446Z,48.12
2017-11-19T16:42:41.771Z,48.13
2017-11-19T16:44:45.106Z,48.13
2017-11-19T16:46:48.457Z,48.14
2017-11-19T16:48:51.758Z,48.14
2017-11-19T16:50:55.075Z,48.14
2017-11-19T16:52:58.377Z,48.15
2017-11-19T16:55:01.683Z,48.15
2017-11-19T16:57:05.015Z,48.15
2017-11-19T16:59:08.386Z,48.15
2017-11-19T17:01:11.789Z,48.16
2017-11-19T17:03:15.158Z,48.16
2017-11-19T17:05:18.474Z,48.15
2017-11-19T17:07:21.782Z,48.16
2017-11-19T17:09:25.065Z,48.15
2017-11-19T17:11:28.410Z,48.15
2017-11-19T17:13:31.732Z,48.15
2017-11-19T17:15:35.021Z,48.14
2017-11-19T17:17:38.473Z,48.15
2017-11-19T17:19:41.800Z,48.16
2017-11-19T17:21:45.128Z,48.16
2017-11-19T17:23:48.551Z,48.16
2017-11-19T17:25:52.072Z,48.17
2017-11-19T17:27:55.465Z,48.15
2017-11-19T17:29:58.812Z,48.17
2017-11-19T17:32:02.231Z,48.16
2017-11-19T17:34:05.520Z,48.17
2017-11-19T17:36:14.490Z,48.17
2017-11-19T17:38:17.805Z,48.18
2017-11-19T17:40:21.238Z,48.17
2017-11-19T17:42:24.602Z,48.18
2017-11-19T17:44:27.906Z,48.17
2017-11-19T17:46:31.297Z,48.18
2017-11-19T17:48:34.614Z,48.18
2017-11-19T17:50:37.913Z,48.18
2017-11-19T17:52:41.204Z,48.18
2017-11-19T17:54:44.545Z,48.19
2017-11-19T17:56:47.851Z,48.19
2017-11-19T17:58:51.150Z,48.19
2017-11-19T18:00:54.466Z,48.18
2017-11-19T18:02:57.881Z,48.18
2017-11-19T18:05:01.188Z,48.19
2017-11-19T18:07:04.598Z,48.20
2017-11-19T18:09:07.990Z,48.19
2017-11-19T18:11:11.294Z,48.20
2017-11-19T18:13:14.603Z,48.20
2017-11-19T18:15:18.027Z,48.21
2017-11-19T18:17:21.350Z,48.21
2017-11-19T18:19:24.743Z,48.22
2017-11-19T18:21:28.142Z,48.22
2017-11-19T18:23:31.430Z,48.23
2017-11-19T18:25:34.743Z,48.24
2017-11-19T18:27:38.030Z,48.24
2017-11-19T18:29:41.438Z,48.24
2017-11-19T18:31:44.888Z,48.25
2017-11-19T18:33:48.206Z,48.26
2017-11-19T18:35:51.493Z,48.26
2017-11-19T18:37:54.906Z,48.27
2017-11-19T18:39:58.234Z,48.26
2017-11-19T18:42:01.609Z,48.27
2017-11-19T18:44:04.913Z,48.27
2017-11-19T18:46:08.239Z,48.26
2017-11-19T18:48:11.542Z,48.28
2017-11-19T18:50:14.865Z,48.28
2017-11-19T18:52:18.202Z,48.28
2017-11-19T18:54:21.586Z,48.28
2017-11-19T18:56:24.901Z,48.28
2017-11-19T18:58:28.198Z,48.28
2017-11-19T19:00:31.561Z,48.29
2017-11-19T19:02:34.949Z,48.30
2017-11-19T19:04:38.246Z,48.31
2017-11-19T19:06:41.537Z,48.31
2017-11-19T19:08:44.876Z,48.29
2017-11-19T19:10:48.360Z,48.29
2017-11-19T19:12:51.710Z,48.29
2017-11-19T19:14:55.058Z,48.30
2017-11-19T19:16:58.353Z,48.30
2017-11-19T19:19:01.677Z,48.31
2017-11-19T19:21:05.173Z,48.30
2017-11-19T19:23:08.456Z,48.30
2017-11-19T19:25:11.856Z,48.31
2017-11-19T19:27:15.234Z,48.32
2017-11-19T19:29:18.525Z,48.31
2017-11-19T19:31:21.824Z,48.32
2017-11-19T19:33:25.125Z,48.33
2017-11-19T19:35:28.418Z,48.33
2017-11-19T19:37:31.716Z,48.34
2017-11-19T19:39:35.081Z,48.34
2017-11-19T19:41:38.841Z,48.34
2017-11-19T19:43:42.275Z,48.34
2017-11-19T19:45:46.138Z,48.34
2017-11-19T19:47:49.748Z,48.35
2017-11-19T19:49:53.427Z,48.34
2017-11-19T19:51:57.347Z,48.34
2017-11-19T19:54:00.831Z,48.35
2017-11-19T19:56:04.953Z,48.34
2017-11-19T19:58:09.570Z,48.35
2017-11-19T20:00:12.966Z,48.34
2017-11-19T20:02:16.343Z,48.34
2017-11-19T20:04:19.669Z,48.35
2017-11-19T20:06:22.978Z,48.35
2017-11-19T20:08:26.620Z,48.35
2017-11-19T20:10:30.266Z,48.35
2017-11-19T20:12:33.574Z,48.35
2017-11-19T20:14:36.878Z,48.35
2017-11-19T20:16:40.192Z,48.35
2017-11-19T20:18:43.505Z,48.35
2017-11-19T20:20:46.912Z,48.35
2017-11-19T20:22:50.367Z,48.35
2017-11-19T20:24:53.646Z,48.35
2017-11-19T20:26:57.045Z,48.35
2017-11-19T20:29:00.370Z,48.35
2017-11-19T20:31:03.756Z,48.36
2017-11-19T20:33:07.163Z,48.35
2017-11-19T20:35:10.466Z,48.36
2017-11-19T20:37:14.056Z,48.36
2017-11-19T20:39:17.347Z,48.37
2017-11-19T20:41:20.700Z,48.37
2017-11-19T20:43:24.018Z,48.36
2017-11-19T20:45:27.322Z,48.36
2017-11-19T20:47:30.631Z,48.35
2017-11-19T20:49:34.083Z,48.36
2017-11-19T20:51:37.381Z,48.37
2017-11-19T20:53:40.701Z,48.36
2017-11-19T20:55:44.059Z,48.35
2017-11-19T20:57:47.443Z,48.35
2017-11-19T20:59:50.838Z,48.36
2017-11-19T21:01:54.225Z,48.36
2017-11-19T21:03:57.527Z,48.36
2017-11-19T21:06:00.841Z,48.37
2017-11-19T21:08:04.133Z,48.36
2017-11-19T21:10:07.502Z,48.36
2017-11-19T21:12:11.053Z,48.36
2017-11-19T21:14:14.380Z,48.37
2017-11-19T21:16:17.775Z,48.37
2017-11-19T21:18:21.086Z,48.37
2017-11-19T21:20:24.387Z,48.38
2017-11-19T21:22:27.718Z,48.37
2017-11-19T21:24:31.118Z,48.38
2017-11-19T21:26:37.259Z,48.39
2017-11-19T21:28:40.578Z,48.39
2017-11-19T21:30:43.902Z,48.37
2017-11-19T21:32:47.361Z,48.38
2017-11-19T21:34:50.693Z,48.38
2017-11-19T21:36:54.006Z,48.39
2017-11-19T21:38:57.310Z,48.39
2017-11-19T21:41:00.595Z,48.39
2017-11-19T21:43:03.959Z,48.39
2017-11-19T21:45:07.245Z,48.40
2017-11-19T21:47:10.588Z,48.40
2017-11-19T21:49:13.918Z,48.40
2017-11-19T21:51:17.307Z,48.41
2017-11-19T21:53:20.620Z,48.40
2017-11-19T21:55:23.949Z,48.40
2017-11-19T21:57:27.347Z,48.40
2017-11-19T21:59:30.641Z,48.39
2017-11-19T22:01:33.962Z,48.40
2017-11-19T22:03:37.257Z,48.40
2017-11-19T22:05:40.610Z,48.40
2017-11-19T22:07:43.925Z,48.40
2017-11-19T22:09:47.290Z,48.41
2017-11-19T22:11:50.593Z,48.41
2017-11-19T22:13:53.895Z,48.41
2017-11-19T22:15:57.357Z,48.40
2017-11-19T22:18:00.661Z,48.40
2017-11-19T22:20:04.037Z,48.40
2017-11-19T22:22:07.429Z,48.40
2017-11-19T22:24:10.719Z,48.39
2017-11-19T22:26:14.113Z,48.39
2017-11-19T22:28:17.431Z,48.40
2017-11-19T22:30:20.777Z,48.40
2017-11-19T22:32:24.184Z,48.39
2017-11-19T22:34:27.477Z,48.39
2017-11-19T22:36:30.865Z,48.39
2017-11-19T22:38:34.257Z,48.39
2017-11-19T22:40:37.557Z,48.39
2017-11-19T22:42:40.941Z,48.39
2017-11-19T22:44:44.336Z,48.38
2017-11-19T22:46:47.726Z,48.40
2017-11-19T22:48:51.028Z,48.41
2017-11-19T22:50:54.348Z,48.39
2017-11-19T22:52:57.692Z,48.40
2017-11-19T22:55:00.979Z,48.39
2017-11-19T22:57:04.301Z,48.39
2017-11-19T22:59:07.589Z,48.39
2017-11-19T23:01:10.949Z,48.39
2017-11-19T23:03:14.263Z,48.38
2017-11-19T23:05:17.570Z,48.35
2017-11-19T23:07:20.923Z,48.38
2017-11-19T23:09:24.245Z,48.37
2017-11-19T23:11:27.575Z,48.36
2017-11-19T23:13:30.897Z,48.36
2017-11-19T23:15:34.284Z,48.38
2017-11-19T23:17:37.583Z,48.38
2017-11-19T23:19:40.970Z,48.38
2017-11-19T23:21:44.422Z,48.36
2017-11-19T23:23:47.756Z,48.36
2017-11-19T23:25:51.167Z,48.35
2017-11-19T23:27:54.632Z,48.35
2017-11-19T23:29:58.270Z,48.35
2017-11-19T23:32:01.739Z,48.36
2017-11-19T23:34:05.122Z,48.36
2017-11-19T23:36:08.487Z,48.36
2017-11-19T23:38:11.802Z,48.35
2017-11-19T23:40:15.117Z,48.36
2017-11-19T23:42:18.418Z,48.37
2017-11-19T23:44:21.769Z,48.38
2017-11-19T23:46:25.082Z,48.37
2017-11-19T23:48:28.459Z,48.37
2017-11-19T23:50:31.742Z,48.37
2017-11-19T23:52:35.128Z,48.37
2017-11-19T23:54:38.533Z,48.37
2017-11-19T23:56:41.901Z,48.37
2017-11-19T23:58:45.213Z,48.36
